»·PEaware :: N716TH KNYL-KSBD

N716TH :: KNYL-KSBD

FLIGHT INFORMATION

Flight Status: Arrived
Operator: Privately registered:
United States
More flights under this callsign
Pilot: Danny R. (17997)
Aircraft: CESSNA 172 SKYHAWK
(C172)
More flights by this aircraft type
Origin: KNYL Yuma MCAS/Yuma Intl
United States
Destination: KSBD San Bernardino Intl
United States
More flights between these airports :: More routes between these airports
Route: +
File this flight plan on PilotEdge
Remarks: FF
Altitude:
(Current/Filed)
10,500ft
Speed:
(Current/Filed)
0kts
Departed: 07-May-18 07:57 AM
Arrived: 07-May-18 09:49 AM
Distance/Time
Traveled:
158nm/1:52
Distance/Time
To Go:
Arrived

Flight Plot

Page will automatically refresh every two minutes.

Flight plan parsing failed; only flown route is shown


Map Options




Map Legend


Flown Route
Filed Route
Departure Airport
Arrival Airport
Navaid (VOR, NDB)
Fix

Horizontal Profiles

Position Reports

Time Latitude Longitude Heading Altitude Ground
Speed
07-May-18 07:38 32.660392 -114.610470 178 216ft 0kts
07-May-18 07:39 32.660392 -114.610470 178 216ft 0kts
07-May-18 07:40 32.660392 -114.610470 178 216ft 0kts
07-May-18 07:41 32.660392 -114.610470 178 216ft 0kts
07-May-18 07:42 32.660392 -114.610470 178 216ft 0kts
07-May-18 07:43 32.660392 -114.610470 178 216ft 0kts
07-May-18 07:44 32.660392 -114.610470 178 216ft 0kts
07-May-18 07:45 32.660392 -114.610470 178 216ft 0kts
07-May-18 07:46 32.660392 -114.610470 178 216ft 0kts
07-May-18 07:47 32.660383 -114.609854 85 216ft 8kts
07-May-18 07:48 32.661848 -114.607984 86 216ft 0kts
07-May-18 07:49 32.661850 -114.605807 83 216ft 8kts
07-May-18 07:50 32.665534 -114.605582 0 216ft 14kts
07-May-18 07:51 32.667212 -114.605356 93 216ft 0kts
07-May-18 07:52 32.667207 -114.605225 90 216ft 0kts
07-May-18 07:53 32.667207 -114.605225 90 216ft 0kts
07-May-18 07:53 32.667207 -114.605225 90 216ft 0kts
07-May-18 07:55 32.667207 -114.605225 90 216ft 0kts
07-May-18 07:56 32.667171 -114.604242 122 216ft 12kts
07-May-18 07:57 32.653168 -114.604953 187 679ft 63kts
07-May-18 07:58 32.643684 -114.617887 269 1409ft 74kts
07-May-18 07:59 32.660859 -114.625652 6 2118ft 79kts
07-May-18 08:00 32.682757 -114.622089 10 2767ft 82kts
07-May-18 08:01 32.705487 -114.618164 10 3413ft 83kts
07-May-18 08:02 32.728414 -114.614204 10 4031ft 84kts
07-May-18 08:03 32.751535 -114.610206 10 4627ft 84kts
07-May-18 08:04 32.772612 -114.614844 308 5204ft 83kts
07-May-18 08:05 32.786654 -114.636439 302 5758ft 82kts
07-May-18 08:06 32.799767 -114.659048 300 6291ft 83kts
07-May-18 08:07 32.812726 -114.681918 300 6799ft 84kts
07-May-18 08:08 32.825758 -114.705045 300 7287ft 84kts
07-May-18 08:09 32.838849 -114.728327 300 7752ft 85kts
07-May-18 08:10 32.852076 -114.751866 300 8200ft 86kts
07-May-18 08:11 32.865362 -114.775516 300 8628ft 86kts
07-May-18 08:12 32.878551 -114.798988 300 9041ft 86kts
07-May-18 08:13 32.891765 -114.822513 296 9490ft 79kts
07-May-18 08:14 32.903112 -114.842744 300 9917ft 72kts
07-May-18 08:15 32.914213 -114.862567 299 10271ft 72kts
07-May-18 08:16 32.925849 -114.883342 300 10483ft 86kts
07-May-18 08:17 32.940432 -114.909184 300 10501ft 99kts
07-May-18 08:18 32.956287 -114.937420 300 10511ft 104kts
07-May-18 08:19 32.972327 -114.966067 300 10503ft 100kts
07-May-18 08:20 32.987380 -114.993070 300 10495ft 96kts
07-May-18 08:21 33.002273 -115.019793 300 10489ft 98kts
07-May-18 08:22 33.017598 -115.047232 300 10469ft 100kts
07-May-18 08:23 33.028935 -115.076008 253 10476ft 97kts
07-May-18 08:24 33.003521 -115.088608 201 10502ft 105kts
07-May-18 08:25 32.979480 -115.102424 264 10514ft 96kts
07-May-18 08:26 32.992732 -115.130540 301 10496ft 99kts
07-May-18 08:27 33.008464 -115.157925 303 10471ft 102kts
07-May-18 08:28 33.025607 -115.184755 304 10465ft 101kts
07-May-18 08:29 33.042669 -115.211386 304 10462ft 100kts
07-May-18 08:30 33.059620 -115.237794 304 10462ft 100kts
07-May-18 08:31 33.081603 -115.259129 321 10457ft 104kts
07-May-18 08:32 33.105512 -115.278260 321 10480ft 102kts
07-May-18 08:33 33.129044 -115.296992 321 10489ft 102kts
07-May-18 08:34 33.152758 -115.316056 321 10489ft 103kts
07-May-18 08:35 33.175582 -115.336305 309 10486ft 101kts
07-May-18 08:36 33.192512 -115.362925 301 10480ft 100kts
07-May-18 08:37 33.208013 -115.390521 300 10479ft 100kts
07-May-18 08:38 33.223362 -115.418276 300 10475ft 100kts
07-May-18 08:39 33.238663 -115.446017 300 10475ft 100kts
07-May-18 08:40 33.253937 -115.473707 300 10473ft 100kts
07-May-18 08:41 33.269197 -115.501444 300 10473ft 99kts
07-May-18 08:42 33.284348 -115.528975 300 10496ft 98kts
07-May-18 08:42 33.296798 -115.551620 300 10495ft 98kts
07-May-18 08:43 33.311908 -115.579100 300 10496ft 99kts
07-May-18 08:44 33.327022 -115.606639 300 10496ft 99kts
07-May-18 08:45 33.342169 -115.634232 299 10493ft 99kts
07-May-18 08:46 33.355479 -115.658508 299 10519ft 97kts
07-May-18 08:47 33.369349 -115.683818 300 10525ft 99kts
07-May-18 08:48 33.384567 -115.711581 300 10525ft 100kts
07-May-18 08:49 33.399667 -115.739592 297 10525ft 100kts
07-May-18 08:50 33.414490 -115.767988 299 10523ft 100kts
07-May-18 08:51 33.429773 -115.796124 299 10523ft 100kts
07-May-18 08:52 33.445129 -115.824247 300 10520ft 101kts
07-May-18 08:53 33.460488 -115.852425 299 10518ft 101kts
07-May-18 08:54 33.475804 -115.880522 299 10518ft 100kts
07-May-18 08:55 33.491124 -115.908651 300 10518ft 100kts
07-May-18 08:56 33.506421 -115.936735 300 10515ft 101kts
07-May-18 08:57 33.521692 -115.964878 299 10513ft 100kts
07-May-18 08:58 33.536938 -115.993093 299 10512ft 100kts
07-May-18 08:59 33.552137 -116.021090 299 10511ft 100kts
07-May-18 09:00 33.567303 -116.049038 299 10509ft 100kts
07-May-18 09:01 33.582461 -116.077001 299 10507ft 100kts
07-May-18 09:02 33.597568 -116.104914 299 10506ft 99kts
07-May-18 09:03 33.612660 -116.132797 299 10506ft 99kts
07-May-18 09:05 33.627789 -116.160767 300 10503ft 100kts
07-May-18 09:06 33.648542 -116.183838 313 10501ft 102kts
07-May-18 09:07 33.669426 -116.206931 312 10500ft 102kts
07-May-18 09:08 33.690196 -116.230004 312 10501ft 101kts
07-May-18 09:09 33.710992 -116.253152 312 10497ft 102kts
07-May-18 09:10 33.731258 -116.275711 312 10496ft 102kts
07-May-18 09:11 33.751971 -116.298797 312 10496ft 101kts
07-May-18 09:12 33.772704 -116.321903 312 10496ft 101kts
07-May-18 09:13 33.793493 -116.345073 312 10492ft 102kts
07-May-18 09:14 33.814037 -116.368036 314 10516ft 100kts
07-May-18 09:15 33.834632 -116.391059 314 10516ft 101kts
07-May-18 09:16 33.855422 -116.414292 314 10515ft 102kts
07-May-18 09:17 33.872894 -116.440068 287 10517ft 100kts
07-May-18 09:18 33.881525 -116.471972 288 10516ft 100kts
07-May-18 09:19 33.890461 -116.503692 289 10515ft 100kts
07-May-18 09:20 33.899432 -116.535323 289 10434ft 99kts
07-May-18 09:21 33.908357 -116.566834 289 10143ft 99kts
07-May-18 09:22 33.916719 -116.596395 289 9349ft 92kts
07-May-18 09:23 33.925118 -116.626172 288 8486ft 97kts
07-May-18 09:24 33.933080 -116.654540 287 7903ft 87kts
07-May-18 09:25 33.940843 -116.681374 286 7446ft 85kts
07-May-18 09:26 33.948187 -116.708237 287 6996ft 86kts
07-May-18 09:27 33.956242 -116.737022 287 6579ft 104kts
07-May-18 09:28 33.965935 -116.771077 289 6385ft 106kts
07-May-18 09:29 33.975772 -116.803395 290 6376ft 99kts
07-May-18 09:30 33.983848 -116.833179 289 6611ft 91kts
07-May-18 09:31 33.992236 -116.864035 289 6681ft 102kts
07-May-18 09:32 34.000667 -116.894995 289 6664ft 90kts
07-May-18 09:33 34.008463 -116.923635 289 6660ft 92kts
07-May-18 09:34 34.017132 -116.955038 288 6403ft 102kts
07-May-18 09:35 34.024847 -116.987516 284 6033ft 100kts
07-May-18 09:36 34.031293 -117.020328 283 5655ft 100kts
07-May-18 09:37 34.037761 -117.053032 284 5303ft 99kts
07-May-18 09:38 34.045174 -117.085053 289 4950ft 100kts
07-May-18 09:39 34.057216 -117.114738 300 4600ft 98kts
07-May-18 09:40 34.071014 -117.143359 294 3884ft 98kts
07-May-18 09:41 34.077714 -117.172680 282 3077ft 87kts
07-May-18 09:42 34.077699 -117.198386 253 2568ft 75kts
07-May-18 09:43 34.069172 -117.222879 248 2208ft 81kts
07-May-18 09:44 34.059791 -117.246960 245 2123ft 77kts
07-May-18 09:45 34.052785 -117.270500 308 2055ft 73kts
07-May-18 09:46 34.069826 -117.283159 336 1779ft 70kts
07-May-18 09:47 34.082769 -117.276331 68 1609ft 71kts
07-May-18 09:48 34.088498 -117.257716 68 1265ft 54kts
07-May-18 09:49 34.092707 -117.243585 71 1161ft 26kts
07-May-18 09:50 34.094470 -117.240761 39 1161ft 0kts
07-May-18 09:51 34.095859 -117.239561 36 1161ft 13kts
07-May-18 09:52 34.098212 -117.238770 272 1161ft 15kts
07-May-18 09:53 34.099614 -117.242199 309 1161ft 8kts
07-May-18 09:54 34.100025 -117.242641 96 1161ft 0kts
07-May-18 09:55 34.100025 -117.242641 96 1161ft 0kts
07-May-18 09:56 34.100025 -117.242641 96 1161ft 0kts
07-May-18 09:57 34.100025 -117.242641 96 1161ft 0kts
07-May-18 09:58 34.100025 -117.242641 96 1161ft 0kts
07-May-18 09:59 34.100025 -117.242641 96 1161ft 0kts
07-May-18 10:00 34.100025 -117.242641 96 1161ft 0kts

Navigation Log

Ident Type
Flight plan parsing failed, navigation log unavailable